• Join FlightAware (Why Join?)
  • Login
  • US Flag 
11:14AM EDT


 

Airport Tracker/Info


-or-


 

Live Flight TrackerFlight Track Log ✈ N830QS ✈ 25-Jun-2013 ✈ KLAX - KSBA

Flight Track Log - Related Links

Times and Time Zones

All times are in EDT time to prevent confusion due to time zone crossing. See the N830QS flight status page for this flight to view local times or setup timezone preferences in your user account.

Time Position Orientation Groundspeed Altitude Reporting Facility
EDT Latitude Longitude Course Direction KTS MPH feet Rate Location/Type
07:05PM 33.9333 -118.4667 292° West 250 288 2,500  Level Southern California TRACON
07:06PM 33.9256 -118.5319 262° West 262 302 5,500 3,660 Climbing Los Angeles Center
07:07PM 33.9147 -118.6289 262° West 269 310 9,600 2,160 Climbing Los Angeles Center
07:08PM 33.9042 -118.7306 263° West 312 359 10,000 120 Climbing Los Angeles Center
07:09PM 33.8942 -118.8375 264° West 320 368 9,900 -60 Descending Los Angeles Center
07:10PM 33.8836 -118.9419 263° West 317 365 9,900  Level Los Angeles Center
07:11PM 34.0608 -118.7658 292° West  Level FlightAware Approximate
07:11PM 33.8936 -119.0439 277° West 313 360 9,900  Level Los Angeles Center
07:12PM 33.9247 -119.1425 291° West 314 361 9,900  Level Los Angeles Center
07:13PM 33.9550 -119.2447 290° West 323 372 9,900  Level Los Angeles Center
07:14PM 34.0400 -119.3264 321° Northwest 340 391 9,900 -120 Level Los Angeles Center
07:16PM 34.1175 -119.3817 329° Northwest 324 373 9,700 -540 Descending Los Angeles Center
07:16PM 34.1733 -119.4281 325° Northwest 286 329 9,000 -900 Descending Los Angeles Center
07:17PM 34.2189 -119.5042 306° West 268 308 8,100 -1,440 Descending Los Angeles Center
07:18PM 34.2700 -119.5683 314° West 275 316 6,100 -2,160 Descending Los Angeles Center
07:19PM 34.3272 -119.6303 318° Northwest 263 303 3,800 -2,040 Descending Los Angeles Center
07:20PM 34.3806 -119.6858 319° Northwest 247 284 2,000 -1,140 Descending Los Angeles Center
07:21PM 34.3936 -119.7442 285° West 194 223 1,600 -600 Descending Los Angeles Center
07:22PM 34.4167 -119.7994 297° West 161 185 800 -720 Descending Los Angeles Center
07:23PM 34.4278 -119.8297 294° West 113 130 100 -720 Descending Los Angeles Center